^^
Lisbon, NH - Weather Station Historical Data
Daily Summary for August 18, 2021 Units:  English    Metric   Both
Daily Weekly Monthly Yearly
  High: Low: Average:
Temperature: 80.8 °F 68.9 °F 72.8 °F
Dew Point: 73.9 °F 68.9 °F 71.3 °F
Humidity: 100% 77.1% 95%
Wind Speed: 4.4mph 0mph 0.5mph
Wind Gust: 13mph - -
Wind- - SW
Pressure: 30.15 in 30.08 in -
Precipitation: 0.04 in    
 
 
Tabular Data for August 18, 2021
Time Temperature Dew Point Pressure Wind Wind Speed Wind Gust Humidity Rainfall Rate (Hourly) solar
00:04 69.3 °F 69.3 °F 30.11 in Calm     100% 0.00 in 0 W/m2
00:09 69.3 °F 69.3 °F 30.11 in Calm     100% 0.00 in 0 W/m2
00:14 69.3 °F 69.3 °F 30.11 in Calm     100% 0.00 in 0 W/m2
00:19 69.3 °F 69.3 °F 30.11 in Calm     100% 0.00 in 0 W/m2
00:24 69.3 °F 69.3 °F 30.11 in Calm     100% 0.00 in 0 W/m2
00:29 69.1 °F 69.1 °F 30.11 in Calm     100% 0.00 in 0 W/m2
00:34 69.2 °F 69.2 °F 30.11 in Calm     100% 0.00 in 0 W/m2
00:39 69.3 °F 69.3 °F 30.11 in Calm     100% 0.00 in 0 W/m2
00:44 69.3 °F 69.3 °F 30.11 in Calm     100% 0.00 in 0 W/m2
00:49 69.3 °F 69.3 °F 30.11 in Calm     100% 0.00 in 0 W/m2
00:54 69.3 °F 69.3 °F 30.11 in Calm     100% 0.00 in 0 W/m2
00:59 69.2 °F 69.2 °F 30.12 in Calm     100% 0.00 in 0 W/m2
01:04 69.1 °F 69.1 °F 30.12 in Calm     100% 0.00 in 0 W/m2
01:09 69.1 °F 69.1 °F 30.12 in Calm     100% 0.00 in 0 W/m2
01:14 69.1 °F 69.1 °F 30.12 in Calm     100% 0.00 in 0 W/m2
01:19 69.1 °F 69.1 °F 30.12 in Calm     100% 0.00 in 0 W/m2
01:24 69.1 °F 69.1 °F 30.12 in Calm     100% 0.00 in 0 W/m2
01:29 69.1 °F 69.1 °F 30.12 in Calm     100% 0.00 in 0 W/m2
01:34 69.1 °F 69.1 °F 30.12 in Calm     100% 0.00 in 0 W/m2
01:39 69.1 °F 69.1 °F 30.12 in Calm     100% 0.00 in 0 W/m2
01:44 69.1 °F 69.1 °F 30.12 in Calm     100% 0.00 in 0 W/m2
01:49 69.1 °F 69.1 °F 30.11 in Calm     100% 0.00 in 0 W/m2
01:54 69.1 °F 69.1 °F 30.11 in Calm     100% 0.00 in 0 W/m2
01:59 69.1 °F 69.1 °F 30.11 in Calm     100% 0.00 in 0 W/m2
02:04 69.1 °F 69.1 °F 30.11 in Calm     100% 0.00 in 0 W/m2
02:09 69.1 °F 69.1 °F 30.11 in Calm     100% 0.00 in 0 W/m2
02:14 69.1 °F 69.1 °F 30.12 in Calm     100% 0.00 in 0 W/m2
02:19 69.1 °F 69.1 °F 30.12 in Calm     100% 0.00 in 0 W/m2
02:24 69.1 °F 69.1 °F 30.12 in Calm     100% 0.00 in 0 W/m2
02:29 69.1 °F 69.1 °F 30.12 in Calm     100% 0.00 in 0 W/m2
02:34 69.1 °F 69.1 °F 30.11 in Calm     100% 0.00 in 0 W/m2
02:39 69.1 °F 69.1 °F 30.11 in Calm     100% 0.00 in 0 W/m2
02:44 69.1 °F 69.1 °F 30.11 in Calm     100% 0.00 in 0 W/m2
02:49 69.1 °F 69.1 °F 30.11 in Calm     100% 0.00 in 0 W/m2
02:54 69.1 °F 69.1 °F 30.11 in Calm     100% 0.00 in 0 W/m2
02:59 69.1 °F 69.1 °F 30.11 in Calm     100% 0.00 in 0 W/m2
03:04 69.1 °F 69.1 °F 30.11 in Calm     100% 0.00 in 0 W/m2
03:09 69.1 °F 69.1 °F 30.11 in Calm     100% 0.00 in 0 W/m2
03:14 69.1 °F 69.1 °F 30.12 in Calm     100% 0.01 in 0 W/m2
03:19 69.1 °F 69.1 °F 30.12 in Calm     100% 0.01 in 0 W/m2
03:24 69.3 °F 69.3 °F 30.12 in Calm     100% 0.01 in 0 W/m2
03:29 69.3 °F 69.3 °F 30.12 in Calm     100% 0.01 in 0 W/m2
03:34 69.3 °F 69.3 °F 30.12 in Calm     100% 0.01 in 0 W/m2
03:39 69.3 °F 69.3 °F 30.12 in Calm     100% 0.01 in 0 W/m2
03:44 69.2 °F 69.2 °F 30.12 in Calm     100% 0.01 in 0 W/m2
03:49 69.1 °F 69.1 °F 30.12 in Calm     100% 0.01 in 0 W/m2
03:54 69.1 °F 69.1 °F 30.12 in Calm     100% 0.01 in 0 W/m2
03:59 69.1 °F 69.1 °F 30.12 in Calm     100% 0.01 in 0 W/m2
04:04 69.1 °F 69.1 °F 30.11 in Calm     100% 0.01 in 0 W/m2
04:09 69.1 °F 69.1 °F 30.11 in Calm     100% 0.01 in 0 W/m2
04:14 69.1 °F 69.1 °F 30.12 in Calm     100% 0.01 in 0 W/m2
04:19 69 °F 69 °F 30.12 in Calm     100% 0.01 in 0 W/m2
04:24 68.9 °F 68.9 °F 30.12 in Calm     100% 0.01 in 0 W/m2
04:29 68.9 °F 68.9 °F 30.12 in Calm     100% 0.00 in 0 W/m2
04:34 68.9 °F 68.9 °F 30.12 in Calm     100% 0.00 in 0 W/m2
04:39 69 °F 69 °F 30.12 in Calm     100% 0.00 in 0 W/m2
04:44 69.1 °F 69.1 °F 30.12 in Calm     100% 0.00 in 0 W/m2
04:49 69.1 °F 69.1 °F 30.12 in Calm     100% 0.00 in 0 W/m2
04:54 69.1 °F 69.1 °F 30.12 in Calm     100% 0.00 in 0 W/m2
04:59 69.1 °F 69.1 °F 30.12 in Calm     100% 0.00 in 0 W/m2
05:04 69.2 °F 69.2 °F 30.12 in Calm     100% 0.00 in 0 W/m2
05:09 69.1 °F 69.1 °F 30.12 in Calm     100% 0.00 in 0 W/m2
05:14 69.1 °F 69.1 °F 30.12 in Calm     100% 0.00 in 0 W/m2
05:19 69.1 °F 69.1 °F 30.12 in Calm     100% 0.00 in 0 W/m2
05:24 69.1 °F 69.1 °F 30.12 in Calm     100% 0.00 in 0 W/m2
05:29 69.1 °F 69.1 °F 30.12 in Calm     100% 0.00 in 0 W/m2
05:34 69 °F 69 °F 30.12 in Calm     100% 0.00 in 0 W/m2
05:39 68.9 °F 68.9 °F 30.12 in Calm     100% 0.00 in 0 W/m2
05:44 69 °F 69 °F 30.12 in Calm     100% 0.00 in 0 W/m2
05:49 69.1 °F 69.1 °F 30.12 in Calm     100% 0.00 in 0 W/m2
05:54 69.1 °F 69.1 °F 30.12 in Calm     100% 0.00 in 0 W/m2
05:59 69.1 °F 69.1 °F 30.12 in Calm     100% 0.00 in 0 W/m2
06:04 69.1 °F 69.1 °F 30.12 in Calm     100% 0.00 in 0 W/m2
06:09 69.1 °F 69.1 °F 30.12 in Calm     100% 0.00 in 0 W/m2
06:14 69.2 °F 69.2 °F 30.12 in Calm     100% 0.00 in 0 W/m2
06:19 69.3 °F 69.3 °F 30.12 in Calm     100% 0.00 in 5 W/m2
06:24 69.3 °F 69.3 °F 30.12 in Calm     100% 0.00 in 5 W/m2
06:29 69.3 °F 69.3 °F 30.13 in Calm     100% 0.00 in 9 W/m2
06:34 69.3 °F 69.3 °F 30.13 in Calm     100% 0.00 in 16 W/m2
06:39 69.4 °F 69.4 °F 30.13 in Calm     100% 0.00 in 21 W/m2
06:44 69.4 °F 69.4 °F 30.13 in Calm     100% 0.00 in 23 W/m2
06:49 69.6 °F 69.6 °F 30.13 in Calm     100% 0.00 in 25 W/m2
06:54 69.6 °F 69.6 °F 30.13 in Calm     100% 0.00 in 25 W/m2
06:59 69.6 °F 69.6 °F 30.13 in Calm     100% 0.00 in 28 W/m2
07:04 69.8 °F 69.8 °F 30.13 in Calm     100% 0.00 in 33 W/m2
07:09 69.8 °F 69.8 °F 30.13 in Calm     100% 0.00 in 40 W/m2
07:14 69.8 °F 69.8 °F 30.14 in SW 0.1 mph 2 mph 100% 0.00 in 42 W/m2
07:19 69.8 °F 69.8 °F 30.14 in SSW 1.5 mph 4 mph 100% 0.00 in 42 W/m2
07:24 69.9 °F 69.9 °F 30.14 in SW 0.8 mph 3 mph 100% 0.00 in 37 W/m2
07:29 69.9 °F 69.9 °F 30.14 in SW 0.5 mph 2 mph 100% 0.00 in 35 W/m2
07:34 69.9 °F 69.9 °F 30.14 in SSW 0.8 mph 3 mph 100% 0.00 in 35 W/m2
07:39 69.9 °F 69.9 °F 30.14 in SSW 0.8 mph 3 mph 100% 0.00 in 40 W/m2
07:44 69.9 °F 69.9 °F 30.14 in SSW 0.2 mph 2 mph 100% 0.00 in 46 W/m2
07:49 70.1 °F 70.1 °F 30.14 in Calm     100% 0.00 in 55 W/m2
07:54 70.1 °F 70.1 °F 30.14 in SW 0.5 mph 2 mph 100% 0.00 in 55 W/m2
07:59 70.1 °F 70.1 °F 30.14 in SW 0.2 mph 1 mph 100% 0.00 in 74 W/m2
08:04 70.1 °F 70.1 °F 30.14 in SW 1.2 mph 3 mph 100% 0.00 in 74 W/m2
08:09 70.1 °F 70.1 °F 30.14 in SW 0.9 mph 3 mph 100% 0.00 in 56 W/m2
08:14 70.1 °F 70.1 °F 30.14 in SW 0.9 mph 3 mph 100% 0.00 in 58 W/m2
08:19 70.1 °F 70.1 °F 30.14 in SW 0.2 mph 2 mph 100% 0.00 in 102 W/m2
08:24 70.3 °F 70.3 °F 30.14 in Calm   1 mph 100% 0.00 in 118 W/m2
08:29 70.4 °F 70.4 °F 30.14 in Calm   1 mph 100% 0.00 in 153 W/m2
08:34 70.5 °F 70.5 °F 30.14 in SW 0.2 mph 1 mph 100% 0.00 in 153 W/m2
08:39 70.8 °F 70.8 °F 30.14 in SSW 0.4 mph 2 mph 100% 0.00 in 153 W/m2
08:44 70.9 °F 70.9 °F 30.14 in SW 0.1 mph 1 mph 100% 0.00 in 162 W/m2
08:49 70.9 °F 70.9 °F 30.14 in SSW 0.4 mph 2 mph 100% 0.00 in 172 W/m2
08:54 71 °F 71 °F 30.14 in SSW 1.1 mph 5 mph 100% 0.00 in 206 W/m2
08:59 71.3 °F 71.3 °F 30.14 in SSW 0.3 mph 3 mph 100% 0.00 in 227 W/m2
09:04 71.6 °F 71.6 °F 30.14 in SSW 0.2 mph 1 mph 100% 0.00 in 255 W/m2
09:09 71.8 °F 71.8 °F 30.14 in Calm   1 mph 100% 0.00 in 204 W/m2
09:14 72 °F 72 °F 30.14 in SSW 1.3 mph 3 mph 100% 0.00 in 201 W/m2
09:19 72.1 °F 71.9 °F 30.14 in SSW 0.7 mph 3 mph 99.2% 0.00 in 220 W/m2
09:24 72.4 °F 71.9 °F 30.14 in SSW 0.6 mph 2 mph 98.5% 0.00 in 236 W/m2
09:29 72.7 °F 72.1 °F 30.14 in SSW 0.4 mph 3 mph 97.9% 0.00 in 276 W/m2
09:34 72.9 °F 71.8 °F 30.14 in SSW 1.3 mph 3 mph 96.4% 0.00 in 276 W/m2
09:39 73 °F 71.7 °F 30.14 in WSW 0.7 mph 2 mph 95.5% 0.00 in 234 W/m2
09:44 73.2 °F 71.6 °F 30.14 in SW 2.1 mph 7 mph 94.8% 0.00 in 229 W/m2
09:49 73.1 °F 71.2 °F 30.14 in SW 1.4 mph 7 mph 93.9% 0.00 in 250 W/m2
09:54 73.2 °F 71.1 °F 30.14 in SSW 1.2 mph 3 mph 93% 0.00 in 250 W/m2
09:59 73.3 °F 71.1 °F 30.15 in SSW 0.5 mph 3 mph 92.8% 0.00 in 236 W/m2
10:04 73.4 °F 70.9 °F 30.15 in SSW 2.9 mph 6 mph 92.1% 0.00 in 183 W/m2
10:09 73.3 °F 70.8 °F 30.15 in SW 1.3 mph 7 mph 92% 0.00 in 195 W/m2
10:14 73.4 °F 71 °F 30.15 in SW 0.9 mph 4 mph 92% 0.00 in 202 W/m2
10:19 73.7 °F 71.3 °F 30.15 in SW 0.5 mph 3 mph 92% 0.00 in 202 W/m2
10:24 73.8 °F 71.3 °F 30.15 in SW 1.3 mph 3 mph 92% 0.00 in 125 W/m2
10:29 73.7 °F 71.2 °F 30.15 in SW 1.5 mph 6 mph 91.9% 0.00 in 204 W/m2
10:34 73.6 °F 71.1 °F 30.15 in SW 1.4 mph 6 mph 92% 0.00 in 216 W/m2
10:39 73.7 °F 71.6 °F 30.15 in SSW 0.1 mph 2 mph 93% 0.00 in 223 W/m2
10:44 74 °F 71.9 °F 30.15 in SSW 0.3 mph 1 mph 93.2% 0.00 in 213 W/m2
10:49 74 °F 72 °F 30.15 in SW 0.3 mph 2 mph 93.5% 0.00 in 199 W/m2
10:54 74 °F 71.9 °F 30.15 in WSW 0.3 mph 2 mph 93.3% 0.00 in 223 W/m2
10:59 74 °F 72 °F 30.15 in SW 0.7 mph 3 mph 93.5% 0.00 in 241 W/m2
11:04 74 °F 72.2 °F 30.15 in SW 1.1 mph 3 mph 94% 0.00 in 225 W/m2
11:09 73.9 °F 72.1 °F 30.15 in SW 0.7 mph 3 mph 94% 0.00 in 201 W/m2
11:14 74 °F 72.2 °F 30.15 in SW 1.2 mph 5 mph 94% 0.00 in 252 W/m2
11:19 73.9 °F 72.1 °F 30.15 in SSW 1.3 mph 5 mph 94% 0.00 in 253 W/m2
11:24 73.9 °F 72 °F 30.15 in SW 0.8 mph 6 mph 93.8% 0.00 in 246 W/m2
11:29 73.9 °F 72.1 °F 30.15 in SSW 1.5 mph 4 mph 94% 0.00 in 234 W/m2
11:34 73.9 °F 72.1 °F 30.14 in SSW 1.2 mph 3 mph 94% 0.00 in 232 W/m2
11:39 74 °F 72.1 °F 30.14 in SSW 0.9 mph 2 mph 94% 0.00 in 262 W/m2
11:44 74.2 °F 72.4 °F 30.14 in SW 0.3 mph 2 mph 94% 0.00 in 310 W/m2
11:49 74.5 °F 72.7 °F 30.14 in SSW 0.5 mph 3 mph 93.9% 0.00 in 317 W/m2
11:54 74.8 °F 72.6 °F 30.14 in SSW 0.6 mph 3 mph 92.9% 0.00 in 377 W/m2
11:59 75 °F 72.4 °F 30.14 in SSW 1.3 mph 3 mph 91.7% 0.00 in 413 W/m2
12:04 75.1 °F 72.3 °F 30.14 in SSW 2.1 mph 5 mph 91% 0.00 in 438 W/m2
12:09 75.5 °F 72.7 °F 30.14 in SSW 1.4 mph 5 mph 91% 0.00 in 523 W/m2
12:14 76 °F 72.9 °F 30.14 in SW 2 mph 6 mph 90% 0.00 in 604 W/m2
12:19 76.6 °F 73 °F 30.13 in SSW 2.5 mph 6 mph 88.9% 0.00 in 674 W/m2
12:24 77.2 °F 73.3 °F 30.13 in SSW 1.1 mph 5 mph 87.7% 0.00 in 801 W/m2
12:29 78.2 °F 73.9 °F 30.13 in SW 1.2 mph 6 mph 86.6% 0.00 in 852 W/m2
12:34 78.9 °F 73.6 °F 30.12 in SSW 2 mph 6 mph 84% 0.00 in 852 W/m2
12:39 78.9 °F 72.7 °F 30.12 in SSW 3.8 mph 8 mph 81.2% 0.00 in 410 W/m2
12:44 78.9 °F 72.6 °F 30.12 in SW 3 mph 10 mph 81% 0.00 in 431 W/m2
12:49 79.5 °F 73.4 °F 30.12 in NW 0.2 mph 1 mph 81.5% 0.00 in 468 W/m2
12:54 80.1 °F 73.6 °F 30.12 in WSW 1.2 mph 5 mph 80.5% 0.00 in 940 W/m2
12:59 80.6 °F 73.6 °F 30.12 in NW 2 mph 7 mph 79.2% 0.00 in 940 W/m2
13:04 80.7 °F 73.1 °F 30.11 in WSW 1.5 mph 7 mph 77.6% 0.00 in 940 W/m2
13:09 80.8 °F 73.1 °F 30.11 in SSW 2.4 mph 7 mph 77.5% 0.00 in 361 W/m2
13:14 80.7 °F 73.1 °F 30.11 in SW 1.1 mph 7 mph 77.8% 0.00 in 391 W/m2
13:19 80.6 °F 73.1 °F 30.11 in SW 3 mph 8 mph 78% 0.00 in 699 W/m2
13:24 80.6 °F 73.3 °F 30.11 in WSW 1.8 mph 6 mph 78.4% 0.00 in 699 W/m2
13:29 80.7 °F 72.9 °F 30.11 in SW 3.1 mph 13 mph 77.1% 0.00 in 509 W/m2
13:34 80.5 °F 72.9 °F 30.11 in SW 4.4 mph 11 mph 77.5% 0.00 in 324 W/m2
13:39 80.1 °F 72.7 °F 30.11 in SW 3.2 mph 10 mph 78% 0.00 in 294 W/m2
13:44 79.8 °F 72.9 °F 30.11 in SW 3.4 mph 7 mph 79.3% 0.00 in 352 W/m2
13:49 79.8 °F 73 °F 30.11 in SW 2.8 mph 10 mph 80% 0.00 in 327 W/m2
13:54 79.6 °F 72.8 °F 30.11 in SW 3.5 mph 10 mph 79.8% 0.00 in 377 W/m2
13:59 79.4 °F 72.7 °F 30.11 in SW 3.3 mph 7 mph 79.9% 0.00 in 422 W/m2
14:04 79.6 °F 72.8 °F 30.10 in SW 1.4 mph 7 mph 79.8% 0.00 in 524 W/m2
14:09 80.1 °F 73.7 °F 30.10 in SW 1.5 mph 7 mph 80.9% 0.00 in 575 W/m2
14:14 80.4 °F 73 °F 30.10 in SW 2.1 mph 7 mph 78.1% 0.00 in 509 W/m2
14:19 80.7 °F 73.3 °F 30.10 in WSW 1.4 mph 7 mph 78.1% 0.00 in 303 W/m2
14:24 80.7 °F 73.5 °F 30.10 in SW 1.7 mph 7 mph 78.7% 0.00 in 308 W/m2
14:29 80.5 °F 73 °F 30.10 in SW 2.9 mph 7 mph 78% 0.00 in 320 W/m2
14:34 80.3 °F 72.9 °F 30.10 in SW 2 mph 7 mph 78.3% 0.00 in 320 W/m2
14:39 80.3 °F 73.4 °F 30.10 in WSW 1.2 mph 7 mph 79.5% 0.00 in 290 W/m2
14:44 80.1 °F 72.9 °F 30.10 in WSW 1.8 mph 8 mph 78.7% 0.00 in 257 W/m2
14:49 80.1 °F 73.2 °F 30.10 in NW 0.6 mph 3 mph 79.5% 0.00 in 236 W/m2
14:54 80.1 °F 73.3 °F 30.10 in WSW 2 mph 8 mph 79.9% 0.00 in 257 W/m2
14:59 79.8 °F 73 °F 30.10 in WSW 2.3 mph 8 mph 79.7% 0.00 in 250 W/m2
15:04 79.5 °F 72.7 °F 30.09 in WSW 1.5 mph 7 mph 79.6% 0.00 in 143 W/m2
15:09 79.4 °F 72.9 °F 30.09 in WNW 0.3 mph 3 mph 80.6% 0.00 in 194 W/m2
15:14 79.3 °F 72.9 °F 30.09 in SSW 2.3 mph 8 mph 80.8% 0.00 in 194 W/m2
15:19 79.2 °F 72.7 °F 30.09 in WSW 1.3 mph 8 mph 80.7% 0.00 in 169 W/m2
15:24 79.1 °F 72.7 °F 30.09 in WSW 2.4 mph 6 mph 81% 0.00 in 137 W/m2
15:29 78.7 °F 72.4 °F 30.09 in SW 1.2 mph 6 mph 81.1% 0.00 in 76 W/m2
15:34 78.5 °F 72.7 °F 30.09 in SW 0.6 mph 2 mph 82.3% 0.00 in 72 W/m2
15:39 78.2 °F 72.5 °F 30.09 in NW 0.9 mph 3 mph 82.8% 0.00 in 97 W/m2
15:44 77.7 °F 72 °F 30.10 in WSW 0.3 mph 3 mph 82.7% 0.00 in 116 W/m2
15:49 77.4 °F 72 °F 30.10 in WNW 0.2 mph 1 mph 83.5% 0.01 in 125 W/m2
15:54 76.9 °F 72 °F 30.10 in Calm   1 mph 84.6% 0.01 in 135 W/m2
15:59 76.6 °F 72.2 °F 30.10 in Calm     86.1% 0.01 in 139 W/m2
16:04 76.2 °F 72.2 °F 30.10 in Calm     87.3% 0.01 in 139 W/m2
16:09 75.9 °F 72.2 °F 30.10 in NW 0.2 mph 1 mph 88.5% 0.02 in 113 W/m2
16:14 75.4 °F 72 °F 30.10 in Calm   1 mph 89% 0.02 in 88 W/m2
16:19 75 °F 72 °F 30.10 in Calm     90.4% 0.02 in 83 W/m2
16:24 74.7 °F 72.2 °F 30.10 in Calm     92.1% 0.02 in 69 W/m2
16:29 74.4 °F 72.3 °F 30.10 in NW 0.5 mph 1 mph 93.3% 0.02 in 83 W/m2
16:34 74.2 °F 72.5 °F 30.10 in NW 0.2 mph 1 mph 94.5% 0.03 in 113 W/m2
16:39 74 °F 72.6 °F 30.10 in Calm   1 mph 95.4% 0.03 in 146 W/m2
16:44 74 °F 72.7 °F 30.10 in Calm     96% 0.03 in 157 W/m2
16:49 73.9 °F 72.9 °F 30.10 in Calm     96.8% 0.03 in 153 W/m2
16:54 73.9 °F 73.2 °F 30.10 in Calm     97.5% 0.03 in 148 W/m2
16:59 74 °F 73.4 °F 30.10 in West 0.4 mph 2 mph 98% 0.02 in 150 W/m2
17:04 74.1 °F 73.5 °F 30.10 in SW 0.4 mph 2 mph 98% 0.02 in 164 W/m2
17:09 74.2 °F 73.6 °F 30.10 in Calm   2 mph 98% 0.02 in 162 W/m2
17:14 74.2 °F 73.6 °F 30.10 in SSW 0.1 mph 1 mph 98% 0.02 in 137 W/m2
17:19 74.2 °F 73.6 °F 30.10 in SW 0.3 mph 2 mph 98% 0.01 in 111 W/m2
17:24 74.2 °F 73.5 °F 30.10 in Calm     97.7% 0.01 in 95 W/m2
17:29 74.2 °F 73.3 °F 30.10 in Calm     97% 0.01 in 104 W/m2
17:34 74.2 °F 73.5 °F 30.10 in Calm     97.8% 0.01 in 104 W/m2
17:39 74.4 °F 73.6 °F 30.10 in SW 0.4 mph 3 mph 97.5% 0.01 in 99 W/m2
17:44 74.4 °F 73.7 °F 30.10 in Calm     97.7% 0.01 in 102 W/m2
17:49 74.4 °F 73.5 °F 30.09 in Calm     97% 0.00 in 102 W/m2
17:54 74.4 °F 73.5 °F 30.09 in Calm     97% 0.00 in 93 W/m2
17:59 74.4 °F 73.2 °F 30.09 in Calm     96.2% 0.00 in 79 W/m2
18:04 74.4 °F 73.2 °F 30.09 in Calm     96% 0.00 in 76 W/m2
18:09 74.5 °F 73.3 °F 30.09 in Calm     96% 0.00 in 72 W/m2
18:14 74.6 °F 73.4 °F 30.09 in Calm     96% 0.00 in 72 W/m2
18:19 74.6 °F 73.4 °F 30.08 in Calm     96% 0.00 in 69 W/m2
18:24 74.6 °F 73.4 °F 30.08 in Calm     96% 0.00 in 63 W/m2
18:29 74.6 °F 73.4 °F 30.08 in Calm     96% 0.00 in 58 W/m2
18:34 74.6 °F 73.4 °F 30.08 in Calm     95.8% 0.00 in 49 W/m2
18:39 74.7 °F 73.3 °F 30.08 in Calm     95.4% 0.00 in 42 W/m2
18:44 74.9 °F 73.4 °F 30.08 in Calm     95% 0.00 in 42 W/m2
18:49 74.9 °F 73.4 °F 30.08 in Calm     95% 0.00 in 42 W/m2
18:54 75.1 °F 73.6 °F 30.08 in Calm     95% 0.00 in 37 W/m2
18:59 75.3 °F 73.8 °F 30.08 in Calm     95% 0.00 in 33 W/m2
19:04 75.3 °F 73.8 °F 30.08 in Calm     95% 0.00 in 30 W/m2
19:09 75.1 °F 73.6 °F 30.08 in Calm     95% 0.00 in 25 W/m2
19:14 75 °F 73.4 °F 30.08 in Calm     95% 0.00 in 18 W/m2
19:19 74.9 °F 73.4 °F 30.08 in Calm     95% 0.00 in 14 W/m2
19:24 74.7 °F 73.2 °F 30.08 in Calm     95% 0.00 in 12 W/m2
19:29 74.6 °F 73.1 °F 30.08 in Calm     95% 0.00 in 11 W/m2
19:34 74.6 °F 73.4 °F 30.08 in Calm     96% 0.00 in 7 W/m2
19:39 74.6 °F 73.4 °F 30.08 in Calm     96% 0.00 in 5 W/m2
19:44 74.6 °F 73.4 °F 30.08 in Calm     96% 0.00 in 5 W/m2
19:49 74.5 °F 73.2 °F 30.08 in Calm     96% 0.00 in 0 W/m2
19:54 74.3 °F 73.1 °F 30.08 in Calm     96% 0.00 in 0 W/m2
19:59 74 °F 72.9 °F 30.08 in Calm     96.5% 0.00 in 0 W/m2
20:04 73.8 °F 72.9 °F 30.08 in Calm     97% 0.00 in 0 W/m2
20:09 73.6 °F 72.7 °F 30.08 in Calm     97% 0.00 in 0 W/m2
20:14 73.5 °F 72.6 °F 30.08 in Calm     97% 0.00 in 0 W/m2
20:19 73.3 °F 72.4 °F 30.08 in Calm     97% 0.00 in 0 W/m2
20:24 73.2 °F 72.3 °F 30.08 in Calm     97% 0.00 in 0 W/m2
20:29 73.1 °F 72.4 °F 30.09 in Calm     97.6% 0.00 in 0 W/m2
20:34 73 °F 72.4 °F 30.09 in Calm     98% 0.00 in 0 W/m2
20:39 72.8 °F 72.2 °F 30.09 in Calm     98% 0.00 in 0 W/m2
20:44 72.7 °F 72.1 °F 30.09 in Calm     98% 0.00 in 0 W/m2
20:49 72.6 °F 72 °F 30.09 in Calm     98% 0.00 in 0 W/m2
20:54 72.5 °F 72.1 °F 30.09 in Calm     98.6% 0.00 in 0 W/m2
20:59 72.3 °F 72 °F 30.09 in Calm     99% 0.00 in 0 W/m2
21:04 72.3 °F 72 °F 30.09 in Calm     99% 0.00 in 0 W/m2
21:09 72.2 °F 71.9 °F 30.09 in Calm     99% 0.00 in 0 W/m2
21:14 72.1 °F 71.8 °F 30.09 in Calm     99% 0.00 in 0 W/m2
21:19 72.1 °F 71.8 °F 30.09 in Calm     99% 0.00 in 0 W/m2
21:24 72 °F 71.7 °F 30.09 in Calm     99% 0.00 in 0 W/m2
21:29 71.9 °F 71.9 °F 30.09 in Calm     100% 0.00 in 0 W/m2
21:34 71.8 °F 71.8 °F 30.09 in Calm     100% 0.00 in 0 W/m2
21:39 71.6 °F 71.6 °F 30.09 in Calm     100% 0.00 in 0 W/m2
21:44 71.6 °F 71.6 °F 30.09 in Calm     100% 0.00 in 0 W/m2
21:49 71.5 °F 71.5 °F 30.09 in Calm     100% 0.00 in 0 W/m2
21:54 71.5 °F 71.5 °F 30.09 in Calm     100% 0.00 in 0 W/m2
21:59 71.5 °F 71.5 °F 30.09 in Calm     100% 0.00 in 0 W/m2
22:04 71.5 °F 71.5 °F 30.09 in Calm     100% 0.00 in 0 W/m2
22:09 71.5 °F 71.5 °F 30.09 in Calm     100% 0.00 in 0 W/m2
22:14 71.4 °F 71.4 °F 30.09 in Calm     100% 0.00 in 0 W/m2
22:19 71.3 °F 71.3 °F 30.09 in Calm     100% 0.00 in 0 W/m2
22:24 71.2 °F 71.2 °F 30.09 in Calm     100% 0.00 in 0 W/m2
22:29 71.1 °F 71.1 °F 30.09 in Calm     100% 0.00 in 0 W/m2
22:34 71.1 °F 71.1 °F 30.09 in Calm     100% 0.00 in 0 W/m2
22:39 71.1 °F 71.1 °F 30.09 in Calm     100% 0.00 in 0 W/m2
22:44 71.1 °F 71.1 °F 30.09 in Calm     100% 0.00 in 0 W/m2
22:49 71.1 °F 71.1 °F 30.08 in Calm     100% 0.00 in 0 W/m2
22:54 70.9 °F 70.9 °F 30.08 in Calm     100% 0.00 in 0 W/m2
22:59 70.9 °F 70.9 °F 30.08 in Calm     100% 0.00 in 0 W/m2
23:04 70.9 °F 70.9 °F 30.08 in Calm     100% 0.00 in 0 W/m2
23:09 70.9 °F 70.9 °F 30.08 in Calm     100% 0.00 in 0 W/m2
23:14 70.9 °F 70.9 °F 30.09 in Calm     100% 0.00 in 0 W/m2
23:19 70.9 °F 70.9 °F 30.09 in Calm     100% 0.00 in 0 W/m2
23:24 70.8 °F 70.8 °F 30.09 in Calm     100% 0.00 in 0 W/m2
23:29 70.8 °F 70.8 °F 30.09 in Calm     100% 0.00 in 0 W/m2
23:34 70.8 °F 70.8 °F 30.09 in Calm     100% 0.00 in 0 W/m2
23:39 70.6 °F 70.6 °F 30.09 in Calm     100% 0.00 in 0 W/m2
23:44 70.6 °F 70.6 °F 30.09 in Calm     100% 0.00 in 0 W/m2
23:49 70.6 °F 70.6 °F 30.09 in Calm     100% 0.00 in 0 W/m2
23:54 70.6 °F 70.6 °F 30.09 in Calm     100% 0.00 in 0 W/m2
23:59 70.5 °F 70.5 °F 30.09 in Calm     100% 0.00 in 0 W/m2
Lisbon, New Hampshire, USA
Compliments of Weather Underground - 4 mb